createdAt,value
2022-08-23T00:02:22.912Z,3.20
2022-08-23T00:05:07.813Z,3.20
2022-08-23T00:07:42.712Z,3.25
2022-08-23T00:10:14.326Z,3.78
2022-08-23T00:12:42.621Z,3.50
2022-08-23T00:15:12.858Z,3.20
2022-08-23T00:17:40.008Z,3.10
2022-08-23T00:22:39.892Z,2.85
2022-08-23T00:25:13.362Z,3.75
2022-08-23T00:27:44.117Z,3.33
2022-08-23T00:30:13.842Z,2.97
2022-08-23T00:32:42.132Z,3.30
2022-08-23T00:35:11.308Z,2.97
2022-08-23T00:37:41.468Z,3.85
2022-08-23T00:40:11.312Z,3.30
2022-08-23T00:43:10.414Z,3.30
2022-08-23T00:46:06.866Z,3.80
2022-08-23T00:48:34.882Z,3.17
2022-08-23T00:51:21.592Z,3.45
2022-08-23T00:53:53.908Z,3.33
2022-08-23T00:56:24.184Z,3.47
2022-08-23T00:58:52.078Z,3.63
2022-08-23T01:01:19.387Z,3.78
2022-08-23T01:06:48.452Z,4.07
2022-08-23T01:09:21.062Z,5.65
2022-08-23T01:12:09.524Z,3.85
2022-08-23T01:14:45.812Z,4.10
2022-08-23T01:17:22.566Z,3.65
2022-08-23T01:20:14.750Z,3.75
2022-08-23T01:23:03.746Z,3.58
2022-08-23T01:25:33.098Z,3.53
2022-08-23T01:28:00.660Z,3.88
2022-08-23T01:30:32.730Z,4.50
2022-08-23T01:33:06.861Z,3.72
2022-08-23T01:35:41.134Z,4.25
2022-08-23T01:38:09.334Z,4.38
2022-08-23T01:40:37.655Z,4.32
2022-08-23T01:43:07.872Z,4.22
2022-08-23T01:45:36.304Z,4.55
2022-08-23T01:48:03.970Z,3.92
2022-08-23T01:50:34.523Z,3.70
2022-08-23T01:53:03.340Z,4.20
2022-08-23T01:55:31.864Z,3.80
2022-08-23T01:58:02.537Z,3.67
2022-08-23T02:00:34.084Z,3.97
2022-08-23T02:03:01.694Z,4.47
2022-08-23T02:05:29.723Z,3.97
2022-08-23T02:08:17.812Z,4.07
2022-08-23T02:10:47.588Z,4.00
2022-08-23T02:13:15.939Z,3.88
2022-08-23T02:15:44.749Z,4.50
2022-08-23T02:18:13.510Z,4.55
2022-08-23T02:20:49.936Z,4.38
2022-08-23T02:23:17.973Z,4.40
2022-08-23T02:25:45.189Z,4.05
2022-08-23T02:28:12.541Z,4.63
2022-08-23T02:30:44.402Z,4.15
2022-08-23T02:33:13.305Z,4.15
2022-08-23T02:35:42.771Z,4.30
2022-08-23T02:38:12.713Z,4.60
2022-08-23T02:40:41.195Z,4.05
2022-08-23T02:43:08.597Z,4.18
2022-08-23T02:45:37.211Z,4.43
2022-08-23T02:48:05.454Z,4.60
2022-08-23T02:53:09.560Z,4.68
2022-08-23T02:55:36.759Z,4.20
2022-08-23T02:58:05.889Z,4.80
2022-08-23T03:00:33.226Z,4.30
2022-08-23T03:03:00.513Z,4.72
2022-08-23T03:05:27.682Z,4.70
2022-08-23T03:10:22.407Z,4.82
2022-08-23T03:12:55.951Z,4.45
2022-08-23T03:15:23.495Z,4.47
2022-08-23T03:17:50.865Z,4.43
2022-08-23T03:20:18.449Z,4.90
2022-08-23T03:22:48.417Z,4.85
2022-08-23T03:25:22.915Z,4.57
2022-08-23T03:28:10.268Z,5.38
2022-08-23T03:30:43.244Z,4.72
2022-08-23T03:33:11.755Z,4.97
2022-08-23T03:35:39.292Z,4.75
2022-08-23T03:38:08.734Z,4.97
2022-08-23T03:40:36.109Z,4.50
2022-08-23T03:45:31.649Z,5.03
2022-08-23T03:47:59.289Z,5.07
2022-08-23T03:50:26.977Z,5.57
2022-08-23T03:52:54.792Z,4.72
2022-08-23T03:55:22.143Z,5.63
2022-08-23T03:57:51.402Z,4.68
2022-08-23T04:00:20.868Z,5.20
2022-08-23T04:02:50.771Z,5.35
2022-08-23T04:05:18.841Z,5.80
2022-08-23T04:07:57.037Z,5.07
2022-08-23T04:10:25.923Z,5.32
2022-08-23T04:12:55.333Z,5.20
2022-08-23T04:15:23.222Z,5.75
2022-08-23T04:17:51.162Z,5.38
2022-08-23T04:20:18.363Z,5.10
2022-08-23T04:23:01.156Z,5.60
2022-08-23T04:25:35.918Z,5.18
2022-08-23T04:28:09.054Z,5.35
2022-08-23T04:30:36.271Z,6.00
2022-08-23T04:33:09.979Z,5.95
2022-08-23T04:35:41.924Z,5.38
2022-08-23T04:38:24.192Z,5.38
2022-08-23T04:41:13.321Z,5.25
2022-08-23T04:43:43.966Z,5.68
2022-08-23T04:46:16.411Z,5.75
2022-08-23T04:48:49.616Z,6.80
2022-08-23T04:51:19.006Z,6.20
2022-08-23T04:53:49.318Z,6.03
2022-08-23T04:56:32.175Z,5.68
2022-08-23T05:01:27.674Z,6.13
2022-08-23T05:03:56.456Z,6.25
2022-08-23T05:06:26.018Z,5.70
2022-08-23T05:08:53.261Z,5.88
2022-08-23T05:11:20.824Z,5.95
2022-08-23T05:13:49.146Z,5.75
2022-08-23T05:16:16.686Z,5.80
2022-08-23T05:18:55.213Z,5.95
2022-08-23T05:21:25.617Z,6.63
2022-08-23T05:23:54.919Z,6.60
2022-08-23T05:26:24.932Z,5.63
2022-08-23T05:28:52.043Z,5.70
2022-08-23T05:31:25.973Z,5.45
2022-08-23T05:33:57.654Z,5.93
2022-08-23T05:36:34.754Z,6.35
2022-08-23T05:39:01.886Z,5.05
2022-08-23T05:41:38.026Z,5.97
2022-08-23T05:44:08.650Z,5.75
2022-08-23T05:46:36.854Z,6.30
2022-08-23T05:49:29.354Z,5.63
2022-08-23T05:51:56.860Z,5.50
2022-08-23T05:54:27.816Z,5.68
2022-08-23T05:57:29.075Z,6.85
2022-08-23T05:59:56.107Z,6.22
2022-08-23T06:02:26.524Z,6.63
2022-08-23T06:04:57.304Z,7.93
2022-08-23T06:07:24.711Z,6.22
2022-08-23T06:09:54.307Z,6.70
2022-08-23T06:12:22.730Z,6.55
2022-08-23T06:17:18.318Z,6.88
2022-08-23T06:19:50.997Z,5.85
2022-08-23T06:22:38.391Z,6.63
2022-08-23T06:25:09.760Z,6.72
2022-08-23T06:27:51.378Z,6.55
2022-08-23T06:30:20.177Z,6.88
2022-08-23T06:32:47.135Z,5.90
2022-08-23T06:35:39.333Z,6.35
2022-08-23T06:38:29.246Z,5.38
2022-08-23T06:41:22.598Z,6.25
2022-08-23T06:44:10.335Z,6.45
2022-08-23T06:46:56.810Z,6.57
2022-08-23T06:49:25.399Z,6.53
2022-08-23T06:51:54.848Z,6.00
2022-08-23T06:54:36.517Z,5.68
2022-08-23T06:57:26.899Z,5.70
2022-08-23T07:00:16.829Z,5.90
2022-08-23T07:03:13.700Z,5.70
2022-08-23T07:05:59.455Z,5.45
2022-08-23T07:08:29.461Z,5.30
2022-08-23T07:10:58.965Z,5.85
2022-08-23T07:13:26.076Z,5.60
2022-08-23T07:15:59.284Z,5.95
2022-08-23T07:18:27.082Z,5.32
2022-08-23T07:21:02.969Z,4.50
2022-08-23T07:23:33.233Z,4.57
2022-08-23T07:26:13.872Z,5.03
2022-08-23T07:28:42.151Z,5.68
2022-08-23T07:31:14.719Z,5.57
2022-08-23T07:33:44.571Z,4.75
2022-08-23T07:36:24.875Z,4.75
2022-08-23T07:38:53.569Z,5.10
2022-08-23T07:41:31.082Z,5.07
2022-08-23T07:44:03.165Z,4.47
2022-08-23T07:46:33.216Z,3.90
2022-08-23T07:49:02.665Z,5.07
2022-08-23T07:51:35.793Z,5.03
2022-08-23T07:54:05.764Z,4.55
2022-08-23T07:56:37.824Z,4.93
2022-08-23T07:59:25.262Z,5.00
2022-08-23T08:02:07.127Z,5.22
2022-08-23T08:04:35.657Z,4.90
2022-08-23T08:07:18.816Z,4.53
2022-08-23T08:09:54.158Z,4.40
2022-08-23T08:12:23.233Z,5.10
2022-08-23T08:14:53.646Z,5.03
2022-08-23T08:17:27.611Z,5.63
2022-08-23T08:20:10.336Z,4.68
2022-08-23T08:23:02.813Z,5.20
2022-08-23T08:25:51.729Z,4.85
2022-08-23T08:28:23.956Z,4.90
2022-08-23T08:30:51.028Z,4.78
2022-08-23T08:33:18.127Z,5.63
2022-08-23T08:35:57.433Z,5.07
2022-08-23T08:38:30.610Z,5.18
2022-08-23T08:41:17.190Z,5.32
2022-08-23T08:44:16.427Z,5.10
2022-08-23T08:46:50.337Z,4.60
2022-08-23T08:49:36.965Z,6.90
2022-08-23T08:52:32.040Z,5.28
2022-08-23T08:55:33.159Z,5.07
2022-08-23T08:58:04.528Z,4.38
2022-08-23T09:00:36.900Z,5.05
2022-08-23T09:03:20.617Z,4.40
2022-08-23T09:06:15.586Z,5.78
2022-08-23T09:09:21.210Z,4.85
2022-08-23T09:12:05.803Z,4.55
2022-08-23T09:14:57.669Z,5.70
2022-08-23T09:17:56.287Z,4.60
2022-08-23T09:20:32.876Z,4.28
2022-08-23T09:23:18.972Z,4.72
2022-08-23T09:25:54.729Z,4.63
2022-08-23T09:28:32.071Z,4.78
2022-08-23T09:31:00.111Z,4.88
2022-08-23T09:33:47.423Z,5.25
2022-08-23T09:36:41.486Z,3.90
2022-08-23T09:39:32.657Z,5.63
2022-08-23T09:42:08.554Z,5.07
2022-08-23T09:44:40.661Z,5.25
2022-08-23T09:47:15.073Z,4.85
2022-08-23T09:49:52.161Z,5.93
2022-08-23T09:52:32.450Z,4.85
2022-08-23T09:55:09.674Z,4.65
2022-08-23T09:57:48.218Z,4.22
2022-08-23T10:00:19.322Z,4.95
2022-08-23T10:02:57.595Z,4.93
2022-08-23T10:05:38.270Z,4.70
2022-08-23T10:08:10.692Z,5.05
2022-08-23T10:10:50.825Z,4.78
2022-08-23T10:13:23.340Z,4.80
2022-08-23T10:16:19.475Z,4.93
2022-08-23T10:19:19.475Z,4.93
2022-08-23T10:22:17.125Z,4.10
2022-08-23T10:25:05.923Z,5.05
2022-08-23T10:28:14.422Z,5.28
2022-08-23T10:30:47.110Z,3.72
2022-08-23T10:33:26.060Z,4.30
2022-08-23T10:36:10.099Z,5.07
2022-08-23T10:38:42.901Z,4.00
2022-08-23T10:41:35.490Z,3.75
2022-08-23T10:44:35.169Z,4.90
2022-08-23T10:47:27.347Z,4.22
2022-08-23T10:49:57.999Z,5.22
2022-08-23T10:52:40.903Z,4.95
2022-08-23T10:55:24.744Z,4.13
2022-08-23T10:57:54.041Z,3.78
2022-08-23T11:00:27.028Z,4.20
2022-08-23T11:03:30.556Z,4.45
2022-08-23T11:06:28.171Z,3.97
2022-08-23T11:09:05.573Z,4.32
2022-08-23T11:11:47.734Z,4.13
2022-08-23T11:14:39.100Z,4.07
2022-08-23T11:17:10.762Z,4.10
2022-08-23T11:19:56.317Z,3.88
2022-08-23T11:22:25.871Z,4.63
2022-08-23T11:25:05.499Z,4.95
2022-08-23T11:27:44.225Z,4.65
2022-08-23T11:30:33.549Z,4.10
2022-08-23T11:33:22.853Z,4.25
2022-08-23T11:35:55.122Z,4.28
2022-08-23T11:38:48.026Z,4.13
2022-08-23T11:41:20.496Z,4.45
2022-08-23T11:43:55.373Z,3.80
2022-08-23T11:46:30.467Z,4.20
2022-08-23T11:49:13.096Z,4.30
2022-08-23T11:52:18.491Z,3.70
2022-08-23T11:54:45.522Z,3.78
2022-08-23T11:57:19.396Z,4.10
2022-08-23T12:00:01.366Z,3.80
2022-08-23T12:02:38.763Z,3.88
2022-08-23T12:05:23.032Z,3.72
2022-08-23T12:08:03.903Z,4.22
2022-08-23T12:10:57.070Z,3.78
2022-08-23T12:13:24.070Z,4.30
2022-08-23T12:16:16.760Z,3.92
2022-08-23T12:18:47.613Z,3.83
2022-08-23T12:21:26.898Z,3.60
2022-08-23T12:24:01.555Z,3.67
2022-08-23T12:26:42.861Z,3.50
2022-08-23T12:29:40.036Z,3.47
2022-08-23T12:32:21.104Z,3.22
2022-08-23T12:34:58.681Z,3.35
2022-08-23T12:37:39.389Z,4.88
2022-08-23T12:40:15.569Z,3.80
2022-08-23T12:42:43.167Z,3.72
2022-08-23T12:45:16.553Z,4.07
2022-08-23T12:48:00.399Z,3.70
2022-08-23T12:50:43.700Z,3.90
2022-08-23T12:53:26.871Z,3.35
2022-08-23T12:56:01.360Z,3.42
2022-08-23T12:58:33.589Z,3.50
2022-08-23T13:01:08.751Z,3.80
2022-08-23T13:03:46.433Z,4.15
2022-08-23T13:06:18.725Z,4.18
2022-08-23T13:09:04.655Z,4.63
2022-08-23T13:11:34.901Z,3.22
2022-08-23T13:14:26.619Z,3.30
2022-08-23T13:17:27.997Z,2.95
2022-08-23T13:20:15.256Z,3.08
2022-08-23T13:23:07.398Z,3.33
2022-08-23T13:25:39.342Z,3.17
2022-08-23T13:28:28.664Z,3.10
2022-08-23T13:31:13.874Z,3.17
2022-08-23T13:33:41.310Z,3.10
2022-08-23T13:36:13.325Z,3.00
2022-08-23T13:38:43.323Z,3.45
2022-08-23T13:41:25.510Z,3.28
2022-08-23T13:43:53.089Z,3.00
2022-08-23T13:46:26.850Z,3.33
2022-08-23T13:49:03.524Z,3.15
2022-08-23T13:51:38.770Z,3.38
2022-08-23T13:54:09.287Z,3.90
2022-08-23T13:56:44.289Z,3.40
2022-08-23T13:59:37.145Z,4.00
2022-08-23T14:02:12.243Z,3.10
2022-08-23T14:04:39.966Z,3.17
2022-08-23T14:07:10.074Z,3.00
2022-08-23T14:09:39.166Z,3.55
2022-08-23T14:12:18.112Z,3.10
2022-08-23T14:14:48.132Z,3.20
2022-08-23T14:17:16.977Z,3.65
2022-08-23T14:20:31.940Z,3.08
2022-08-23T14:22:38.809Z,3.20
2022-08-23T14:25:07.050Z,2.90
2022-08-23T14:27:35.049Z,3.25
2022-08-23T14:30:04.711Z,3.35
2022-08-23T14:32:33.138Z,2.97
2022-08-23T14:35:01.050Z,3.53
2022-08-23T14:40:15.399Z,2.75
2022-08-23T14:42:43.904Z,3.55
2022-08-23T14:45:12.394Z,3.70
2022-08-23T14:47:39.592Z,3.72
2022-08-23T14:50:13.205Z,2.83
2022-08-23T14:52:45.728Z,3.22
2022-08-23T14:55:14.402Z,2.40
2022-08-23T14:57:44.679Z,3.00
2022-08-23T15:00:16.854Z,3.05
2022-08-23T15:02:47.518Z,3.80
2022-08-23T15:05:15.140Z,2.67
2022-08-23T15:07:42.636Z,3.05
2022-08-23T15:13:19.143Z,2.80
2022-08-23T15:15:50.831Z,3.22
2022-08-23T15:18:19.162Z,2.97
2022-08-23T15:20:47.033Z,2.95
2022-08-23T15:23:14.746Z,3.13
2022-08-23T15:25:43.658Z,3.40
2022-08-23T15:28:15.910Z,2.70
2022-08-23T15:30:44.386Z,2.72
2022-08-23T15:33:11.709Z,2.70
2022-08-23T15:35:47.081Z,2.60
2022-08-23T15:38:23.011Z,3.17
2022-08-23T15:40:52.209Z,3.03
2022-08-23T15:43:20.893Z,3.15
2022-08-23T15:45:48.630Z,3.05
2022-08-23T15:48:29.601Z,2.60
2022-08-23T15:50:58.661Z,2.42
2022-08-23T15:53:26.394Z,2.80
2022-08-23T15:55:56.549Z,2.83
2022-08-23T15:58:26.473Z,2.65
2022-08-23T16:00:54.396Z,2.40
2022-08-23T16:03:22.422Z,2.50
2022-08-23T16:05:53.883Z,2.63
2022-08-23T16:08:25.368Z,3.13
2022-08-23T16:10:53.373Z,2.85
2022-08-23T16:13:21.912Z,2.60
2022-08-23T16:15:49.658Z,3.20
2022-08-23T16:18:16.858Z,2.40
2022-08-23T16:20:44.892Z,2.58
2022-08-23T16:23:17.102Z,2.58
2022-08-23T16:25:49.418Z,2.75
2022-08-23T16:28:20.139Z,2.50
2022-08-23T16:30:47.298Z,2.72
2022-08-23T16:33:14.376Z,2.65
2022-08-23T16:35:43.404Z,2.42
2022-08-23T16:38:10.388Z,2.58
2022-08-23T16:40:37.308Z,2.80
2022-08-23T16:45:31.661Z,2.63
2022-08-23T16:47:59.483Z,2.80
2022-08-23T16:50:26.731Z,2.45
2022-08-23T16:52:53.599Z,3.25
2022-08-23T16:55:20.906Z,2.60
2022-08-23T16:57:47.939Z,2.30
2022-08-23T17:00:17.063Z,2.42
2022-08-23T17:02:44.202Z,2.70
2022-08-23T17:05:16.035Z,3.05
2022-08-23T17:07:43.361Z,2.50
2022-08-23T17:10:12.903Z,2.60
2022-08-23T17:12:45.270Z,2.63
2022-08-23T17:15:18.806Z,2.97
2022-08-23T17:17:48.334Z,2.33
2022-08-23T17:20:24.136Z,2.65
2022-08-23T17:22:52.175Z,2.55
2022-08-23T17:25:21.647Z,2.92
2022-08-23T17:27:51.966Z,2.90
2022-08-23T17:30:23.547Z,2.22
2022-08-23T17:32:53.218Z,2.55
2022-08-23T17:35:23.415Z,3.15
2022-08-23T17:37:50.671Z,2.63
2022-08-23T17:40:23.088Z,2.67
2022-08-23T17:42:50.319Z,2.65
2022-08-23T17:45:18.344Z,2.88
2022-08-23T17:47:46.363Z,2.55
2022-08-23T17:50:15.002Z,3.08
2022-08-23T17:52:42.370Z,2.75
2022-08-23T17:55:10.702Z,2.80
2022-08-23T17:57:41.151Z,3.20
2022-08-23T18:00:11.137Z,3.13
2022-08-23T18:02:39.142Z,3.00
2022-08-23T18:05:08.195Z,3.30
2022-08-23T18:07:35.583Z,4.10
2022-08-23T18:10:04.101Z,3.83
2022-08-23T18:12:34.561Z,2.90
2022-08-23T18:15:04.804Z,3.00
2022-08-23T18:17:33.059Z,2.72
2022-08-23T18:20:00.938Z,2.78
2022-08-23T18:22:28.219Z,3.17
2022-08-23T18:24:55.474Z,2.70
2022-08-23T18:27:42.198Z,2.90
2022-08-23T18:30:10.708Z,3.10
2022-08-23T18:32:38.120Z,2.88
2022-08-23T18:35:06.296Z,3.08
2022-08-23T18:37:33.929Z,3.20
2022-08-23T18:40:01.216Z,3.40
2022-08-23T18:42:29.145Z,2.78
2022-08-23T18:44:56.343Z,2.92
2022-08-23T18:49:50.912Z,3.55
2022-08-23T18:52:18.999Z,3.25
2022-08-23T18:54:46.640Z,3.42
2022-08-23T18:57:16.762Z,3.25
2022-08-23T18:59:47.287Z,2.90
2022-08-23T19:02:17.668Z,3.38
2022-08-23T19:04:46.198Z,3.35
2022-08-23T19:07:13.636Z,3.30
2022-08-23T19:09:40.651Z,3.20
2022-08-23T19:12:13.770Z,3.50
2022-08-23T19:14:43.509Z,3.17
2022-08-23T19:17:11.690Z,3.03
2022-08-23T19:19:42.517Z,3.45
2022-08-23T19:22:09.571Z,3.25
2022-08-23T19:27:04.684Z,3.38
2022-08-23T19:29:32.044Z,3.00
2022-08-23T19:31:59.769Z,3.08
2022-08-23T19:34:27.358Z,3.17
2022-08-23T19:37:00.703Z,3.35
2022-08-23T19:39:29.911Z,2.72
2022-08-23T19:41:59.900Z,2.60
2022-08-23T19:44:28.346Z,3.35
2022-08-23T19:46:56.419Z,3.47
2022-08-23T19:49:26.993Z,3.58
2022-08-23T19:52:02.876Z,2.83
2022-08-23T19:54:47.011Z,3.42
2022-08-23T19:57:20.874Z,3.50
2022-08-23T20:00:19.113Z,3.10
2022-08-23T20:02:58.229Z,3.15
2022-08-23T20:05:26.259Z,4.07
2022-08-23T20:10:44.416Z,3.88
2022-08-23T20:13:13.107Z,3.33
2022-08-23T20:15:52.157Z,4.32
2022-08-23T20:18:29.071Z,4.10
2022-08-23T20:21:12.072Z,4.03
2022-08-23T20:24:10.499Z,4.15
2022-08-23T20:27:28.448Z,3.60
2022-08-23T20:30:01.790Z,4.18
2022-08-23T20:32:35.840Z,4.80
2022-08-23T20:35:13.523Z,4.47
2022-08-23T20:37:43.357Z,3.85
2022-08-23T20:40:17.047Z,4.18
2022-08-23T20:42:47.954Z,3.88
2022-08-23T20:45:17.294Z,4.35
2022-08-23T20:47:44.603Z,3.88
2022-08-23T20:52:42.108Z,3.90
2022-08-23T20:55:14.525Z,4.30
2022-08-23T20:57:41.939Z,3.97
2022-08-23T21:02:39.863Z,4.28
2022-08-23T21:05:08.908Z,4.10
2022-08-23T21:07:38.574Z,3.50
2022-08-23T21:10:09.190Z,4.03
2022-08-23T21:12:41.310Z,4.20
2022-08-23T21:15:11.119Z,4.05
2022-08-23T21:17:41.277Z,4.28
2022-08-23T21:20:09.452Z,4.57
2022-08-23T21:22:41.457Z,4.63
2022-08-23T21:25:09.440Z,4.07
2022-08-23T21:27:45.614Z,4.18
2022-08-23T21:30:17.617Z,3.70
2022-08-23T21:32:45.388Z,3.17
2022-08-23T21:35:15.876Z,3.95
2022-08-23T21:37:43.728Z,3.90
2022-08-23T21:40:14.052Z,3.83
2022-08-23T21:42:48.541Z,3.80
2022-08-23T21:45:17.065Z,4.25
2022-08-23T21:47:55.222Z,4.00
2022-08-23T21:50:24.677Z,4.00
2022-08-23T21:53:05.346Z,4.20
2022-08-23T21:55:36.906Z,4.07
2022-08-23T21:58:14.609Z,4.00
2022-08-23T22:00:42.489Z,4.10
2022-08-23T22:03:11.515Z,3.83
2022-08-23T22:05:43.316Z,3.33
2022-08-23T22:08:14.892Z,3.88
2022-08-23T22:10:57.167Z,3.75
2022-08-23T22:13:34.888Z,3.22
2022-08-23T22:16:12.238Z,3.67
2022-08-23T22:18:42.995Z,3.40
2022-08-23T22:21:10.850Z,3.75
2022-08-23T22:23:44.911Z,3.60
2022-08-23T22:26:14.025Z,4.20
2022-08-23T22:28:47.643Z,3.78
2022-08-23T22:31:15.456Z,3.58
2022-08-23T22:33:44.766Z,3.90
2022-08-23T22:36:16.984Z,4.10
2022-08-23T22:38:50.606Z,3.80
2022-08-23T22:41:25.655Z,3.90
2022-08-23T22:44:01.581Z,4.20
2022-08-23T22:46:38.361Z,3.80
2022-08-23T22:49:09.396Z,3.38
2022-08-23T22:51:37.962Z,3.92
2022-08-23T22:54:09.314Z,4.28
2022-08-23T22:56:42.020Z,3.67
2022-08-23T22:59:14.294Z,3.35
2022-08-23T23:01:54.710Z,3.60
2022-08-23T23:04:28.606Z,5.65
2022-08-23T23:07:06.475Z,3.90
2022-08-23T23:09:35.437Z,3.65
2022-08-23T23:12:05.960Z,3.75
2022-08-23T23:14:40.110Z,4.00
2022-08-23T23:17:07.499Z,3.50
2022-08-23T23:19:57.301Z,3.42
2022-08-23T23:22:24.891Z,3.50
2022-08-23T23:24:52.013Z,3.72
2022-08-23T23:27:19.140Z,3.25
2022-08-23T23:29:51.939Z,3.67
2022-08-23T23:32:25.788Z,3.78
2022-08-23T23:34:58.930Z,4.00
2022-08-23T23:37:28.190Z,3.50
2022-08-23T23:42:25.385Z,3.80
2022-08-23T23:44:55.190Z,3.50
2022-08-23T23:49:53.944Z,4.05
2022-08-23T23:52:23.858Z,4.10
2022-08-23T23:54:51.072Z,3.72
2022-08-23T23:57:18.207Z,3.72
2022-08-23T23:59:48.728Z,3.92
